Time;durP1;ratioP1;P1;durP2;ratioP2;P2;SDS_P1;SDS_P2;PMS_P1;PMS_P2;Temp;Humidity;BMP_temperature;BMP_pressure;BME280_temperature;BME280_humidity;BME280_pressure;Samples;Min_cycle;Max_cycle;Signal;HPM_P1;HPM_P2
2023/10/15 00:00:24;;;;;;;5.68;1.42;;;11.30;74.40;;;;;;5088360;28;20089;-68
2023/10/15 00:02:51;;;;;;;5.90;1.83;;;11.30;74.60;;;;;;5093518;28;20036;-68
2023/10/15 00:05:22;;;;;;;4.90;1.30;;;11.40;74.80;;;;;;5095301;28;20341;-68
2023/10/15 00:07:49;;;;;;;5.25;1.70;;;11.40;75.00;;;;;;5073067;28;20024;-68
2023/10/15 00:10:16;;;;;;;5.85;1.85;;;11.40;75.00;;;;;;5094583;28;20043;-68
2023/10/15 00:12:44;;;;;;;8.18;1.98;;;11.40;75.10;;;;;;5093526;28;20020;-68
2023/10/15 00:15:15;;;;;;;6.68;2.35;;;11.40;75.10;;;;;;5093218;28;20028;-68
2023/10/15 00:17:42;;;;;;;7.75;1.88;;;11.50;75.20;;;;;;5092151;28;20101;-68
2023/10/15 00:20:55;;;;;;;6.68;1.95;;;11.40;75.20;;;;;;5091028;28;20047;-68
2023/10/15 00:22:55;;;;;;;5.53;1.63;;;11.50;75.40;;;;;;5086733;28;20036;-69
2023/10/15 00:25:21;;;;;;;6.18;1.40;;;11.50;75.40;;;;;;5096665;28;20020;-69
2023/10/15 00:27:57;;;;;;;6.40;1.50;;;11.50;75.40;;;;;;5096139;28;20114;-68
2023/10/15 00:30:31;;;;;;;6.28;1.27;;;11.40;75.40;;;;;;5080565;28;20094;-68
2023/10/15 00:32:58;;;;;;;3.88;1.27;;;11.50;75.60;;;;;;5075072;28;20467;-68
2023/10/15 00:35:25;;;;;;;3.83;1.25;;;11.40;75.50;;;;;;5095056;28;20407;-68
2023/10/15 00:37:56;;;;;;;5.00;1.27;;;11.40;75.50;;;;;;5097115;28;20472;-68
2023/10/15 00:40:26;;;;;;;4.65;1.48;;;11.40;75.60;;;;;;5099668;28;20027;-69
2023/10/15 00:42:52;;;;;;;4.07;1.30;;;11.40;75.80;;;;;;5079867;28;20071;-68
2023/10/15 00:45:20;;;;;;;5.38;1.40;;;11.40;75.90;;;;;;5096332;28;20074;-69
2023/10/15 00:50:38;;;;;;;6.20;1.65;;;11.40;76.00;;;;;;5097462;28;20054;-69
2023/10/15 00:53:21;;;;;;;4.25;1.75;;;11.30;76.00;;;;;;5095877;28;20024;-68
2023/10/15 00:56:05;;;;;;;4.70;1.30;;;11.30;76.10;;;;;;5076096;28;20452;-68
2023/10/15 01:01:26;;;;;;;5.82;1.30;;;11.30;76.30;;;;;;5097551;28;20023;-69
2023/10/15 01:03:53;;;;;;;2.47;1.00;;;11.30;76.40;;;;;;5089406;28;20075;-69
2023/10/15 01:09:30;;;;;;;2.70;0.90;;;11.20;76.50;;;;;;5091702;28;20360;-68
2023/10/15 01:11:57;;;;;;;3.17;1.00;;;11.20;76.60;;;;;;5090740;28;20345;-68
2023/10/15 01:14:31;;;;;;;4.07;0.95;;;11.20;76.60;;;;;;5093114;28;20020;-68
2023/10/15 01:16:59;;;;;;;3.85;1.00;;;11.20;76.70;;;;;;5089457;28;20074;-68
2023/10/15 01:19:32;;;;;;;3.05;0.88;;;11.30;76.70;;;;;;5085917;28;20524;-68
2023/10/15 01:22:02;;;;;;;2.50;0.90;;;11.30;76.70;;;;;;5093071;28;20462;-68
2023/10/15 01:24:32;;;;;;;4.20;1.13;;;11.30;76.70;;;;;;5094253;28;20107;-68
2023/10/15 01:29:34;;;;;;;1.98;0.65;;;11.30;76.60;;;;;;5093420;28;20115;-68
2023/10/15 01:32:25;;;;;;;4.57;1.30;;;11.30;76.50;;;;;;5094395;28;20024;-68
2023/10/15 01:34:52;;;;;;;2.95;0.70;;;11.30;76.40;;;;;;5091856;28;20028;-68
2023/10/15 01:42:53;;;;;;;3.40;0.90;;;11.30;76.30;;;;;;5075616;28;20036;-68
2023/10/15 01:45:30;;;;;;;2.75;1.00;;;11.30;76.40;;;;;;5092977;28;20021;-68
2023/10/15 01:48:05;;;;;;;2.55;0.98;;;11.20;76.40;;;;;;5089437;28;20016;-68
2023/10/15 01:50:49;;;;;;;1.90;0.77;;;11.30;76.50;;;;;;5090431;28;20027;-68
2023/10/15 01:53:16;;;;;;;3.80;0.82;;;11.30;76.50;;;;;;5093287;28;20073;-68
2023/10/15 01:55:54;;;;;;;5.68;1.20;;;11.20;76.50;;;;;;5090873;28;20021;-68
2023/10/15 01:58:31;;;;;;;2.47;1.10;;;11.20;76.60;;;;;;5075040;28;20024;-68
2023/10/15 02:01:20;;;;;;;1.95;0.70;;;11.20;77.20;;;;;;5076028;28;20098;-68
2023/10/15 02:03:48;;;;;;;2.35;0.80;;;11.20;76.50;;;;;;5094874;28;20024;-68
2023/10/15 02:06:18;;;;;;;3.30;0.93;;;11.20;76.50;;;;;;5091020;28;21419;-68
2023/10/15 02:08:45;;;;;;;3.20;1.10;;;11.20;77.20;;;;;;5074123;28;20023;-68
2023/10/15 02:11:21;;;;;;;5.80;1.30;;;11.20;76.60;;;;;;5090097;28;20135;-68
2023/10/15 02:13:50;;;;;;;4.63;1.10;;;11.20;76.70;;;;;;5091862;28;20077;-68
2023/10/15 02:16:21;;;;;;;2.85;0.95;;;11.20;76.80;;;;;;5091012;28;20032;-70
2023/10/15 02:18:51;;;;;;;2.50;1.10;;;11.20;76.90;;;;;;5091111;28;20044;-68
2023/10/15 02:21:17;;;;;;;3.65;0.90;;;11.20;76.90;;;;;;5099378;28;20025;-68
2023/10/15 02:23:50;;;;;;;3.70;1.10;;;11.20;76.90;;;;;;5095094;28;20383;-68
2023/10/15 02:26:23;;;;;;;2.65;0.80;;;11.20;77.10;;;;;;5094476;28;20012;-68
2023/10/15 02:28:53;;;;;;;3.63;1.15;;;11.20;77.20;;;;;;5092231;28;20040;-68
2023/10/15 02:31:22;;;;;;;3.28;0.98;;;11.20;77.20;;;;;;5092426;28;20024;-68
2023/10/15 02:33:50;;;;;;;3.92;1.35;;;11.30;77.20;;;;;;5092778;28;20020;-68
2023/10/15 02:36:16;;;;;;;1.25;0.85;;;11.30;77.20;;;;;;5089383;28;20477;-68
2023/10/15 02:38:59;;;;;;;3.65;1.15;;;11.30;77.20;;;;;;5105131;28;20058;-68
2023/10/15 02:41:30;;;;;;;4.05;1.17;;;11.30;77.20;;;;;;5089473;28;20158;-68
2023/10/15 02:43:57;;;;;;;1.67;1.00;;;11.30;77.30;;;;;;5091969;28;20027;-68
2023/10/15 02:46:29;;;;;;;5.05;1.10;;;11.30;77.20;;;;;;5093421;28;20013;-68
2023/10/15 02:48:55;;;;;;;5.75;1.17;;;11.30;77.10;;;;;;5091402;28;20078;-69
2023/10/15 02:51:25;;;;;;;3.83;1.42;;;11.30;77.20;;;;;;5072146;28;20479;-68
2023/10/15 02:53:55;;;;;;;5.63;1.15;;;11.30;77.30;;;;;;5095453;28;20169;-68
2023/10/15 02:56:22;;;;;;;2.95;1.10;;;11.30;77.30;;;;;;5074873;28;20110;-68
2023/10/15 02:58:49;;;;;;;1.60;0.80;;;11.30;77.20;;;;;;5091704;28;20027;-68
2023/10/15 03:01:19;;;;;;;3.13;1.20;;;11.30;77.20;;;;;;5075472;28;20463;-68
2023/10/15 03:03:49;;;;;;;4.50;1.20;;;11.30;77.20;;;;;;5061058;28;20031;-68
2023/10/15 03:06:19;;;;;;;3.28;0.70;;;11.30;77.20;;;;;;5092111;28;20028;-68
2023/10/15 03:08:48;;;;;;;2.65;1.05;;;11.30;77.20;;;;;;5091987;28;20089;-68
2023/10/15 03:11:14;;;;;;;2.33;1.10;;;11.30;77.20;;;;;;5078553;28;20032;-68
2023/10/15 03:13:50;;;;;;;2.83;1.05;;;11.20;77.80;;;;;;5094936;28;20471;-68
2023/10/15 03:16:30;;;;;;;4.30;0.95;;;11.20;77.20;;;;;;5092253;28;20406;-68
2023/10/15 03:18:56;;;;;;;2.17;0.90;;;11.20;77.10;;;;;;5070443;28;20127;-68
2023/10/15 03:21:26;;;;;;;2.65;0.80;;;11.20;77.10;;;;;;5090411;28;20040;-68
2023/10/15 03:23:55;;;;;;;3.47;1.05;;;11.20;77.20;;;;;;5077653;28;20403;-68
2023/10/15 03:26:32;;;;;;;2.28;1.08;;;11.20;77.20;;;;;;5075611;28;20448;-68
2023/10/15 03:29:00;;;;;;;1.33;0.77;;;11.20;77.20;;;;;;5089462;28;20028;-68
2023/10/15 03:31:31;;;;;;;1.60;0.75;;;11.20;77.20;;;;;;5089637;28;20031;-68
2023/10/15 03:36:43;;;;;;;3.55;0.90;;;11.10;77.10;;;;;;5091673;28;20067;-68
2023/10/15 03:39:15;;;;;;;1.98;1.00;;;11.10;77.10;;;;;;5092099;28;20020;-68
2023/10/15 03:41:41;;;;;;;1.75;0.77;;;11.10;77.20;;;;;;5090166;28;20055;-68
2023/10/15 03:44:10;;;;;;;2.95;0.95;;;11.10;77.20;;;;;;5087775;28;20417;-68
2023/10/15 03:46:36;;;;;;;2.05;0.90;;;11.10;77.20;;;;;;5089783;28;20059;-68
2023/10/15 03:49:07;;;;;;;1.92;0.80;;;11.10;77.30;;;;;;5089248;28;20036;-68
2023/10/15 03:51:48;;;;;;;1.98;0.70;;;11.10;77.30;;;;;;5088828;28;20028;-68
2023/10/15 03:54:17;;;;;;;3.45;1.00;;;11.10;77.30;;;;;;5089855;28;20115;-68
2023/10/15 03:56:43;;;;;;;2.13;0.80;;;11.10;77.30;;;;;;5094063;28;20028;-68
2023/10/15 03:59:12;;;;;;;2.05;0.77;;;11.20;77.30;;;;;;5093368;28;20360;-68
2023/10/15 04:01:47;;;;;;;1.73;0.70;;;11.20;77.40;;;;;;5093773;28;20066;-68
2023/10/15 04:04:16;;;;;;;1.60;0.88;;;11.10;77.30;;;;;;5095714;28;20040;-68
2023/10/15 04:06:45;;;;;;;3.30;1.10;;;11.10;77.50;;;;;;5093277;28;20035;-68
2023/10/15 04:09:13;;;;;;;3.42;1.05;;;11.10;77.60;;;;;;5097013;28;20042;-68
2023/10/15 04:11:44;;;;;;;3.03;0.85;;;11.10;77.60;;;;;;5092239;28;20463;-68
2023/10/15 04:14:13;;;;;;;3.15;1.25;;;11.00;77.40;;;;;;5098420;28;20027;-69
2023/10/15 04:16:43;;;;;;;1.88;0.90;;;11.00;77.20;;;;;;5096032;28;20072;-69
2023/10/15 04:19:09;;;;;;;4.40;1.02;;;11.00;77.70;;;;;;5096264;28;20434;-69
2023/10/15 04:21:39;;;;;;;3.05;1.27;;;10.90;77.10;;;;;;5093445;28;20063;-69
2023/10/15 04:24:06;;;;;;;3.67;0.93;;;10.80;77.20;;;;;;5089745;28;20070;-68
2023/10/15 04:26:35;;;;;;;2.10;0.80;;;10.80;77.20;;;;;;5095745;28;20140;-68
2023/10/15 04:29:15;;;;;;;1.35;0.70;;;10.80;77.30;;;;;;5110187;28;20032;-68
2023/10/15 04:31:44;;;;;;;2.80;0.70;;;10.70;77.40;;;;;;5096173;28;20063;-68
2023/10/15 04:34:18;;;;;;;1.40;0.60;;;10.70;77.30;;;;;;5096517;28;20040;-68
2023/10/15 04:36:45;;;;;;;1.35;0.57;;;10.70;77.20;;;;;;5070463;28;20469;-68
2023/10/15 04:39:12;;;;;;;1.63;0.50;;;10.80;77.10;;;;;;5096101;28;20024;-68
2023/10/15 04:41:40;;;;;;;3.28;0.95;;;10.80;77.00;;;;;;5098198;28;20024;-68
2023/10/15 04:44:11;;;;;;;2.28;0.73;;;10.80;76.90;;;;;;5094392;28;20452;-68
2023/10/15 04:46:41;;;;;;;1.95;0.77;;;10.80;76.90;;;;;;5098703;28;20035;-68
2023/10/15 04:49:09;;;;;;;1.65;0.75;;;10.80;76.90;;;;;;5077052;28;20024;-68
2023/10/15 04:51:43;;;;;;;1.80;0.70;;;10.80;76.90;;;;;;5095924;28;20364;-69
2023/10/15 04:54:10;;;;;;;1.92;0.63;;;10.80;77.00;;;;;;5093238;28;20024;-68
2023/10/15 04:56:36;;;;;;;3.00;1.00;;;10.80;77.00;;;;;;5095070;28;20047;-68
2023/10/15 04:59:04;;;;;;;2.53;0.75;;;10.70;76.90;;;;;;5093421;28;20043;-68
2023/10/15 05:01:33;;;;;;;5.10;0.93;;;10.70;77.10;;;;;;5095929;28;20028;-68
2023/10/15 05:04:00;;;;;;;2.45;0.80;;;10.70;77.10;;;;;;5092824;28;20364;-67
2023/10/15 05:06:26;;;;;;;1.58;0.60;;;10.70;77.20;;;;;;5096822;28;20524;-67
2023/10/15 05:08:53;;;;;;;2.08;0.98;;;10.70;77.10;;;;;;5097039;28;20024;-67
2023/10/15 05:11:21;;;;;;;3.33;0.90;;;10.70;77.10;;;;;;5097257;28;20028;-67
2023/10/15 05:13:50;;;;;;;2.95;0.82;;;10.70;77.20;;;;;;5094804;28;20052;-67
2023/10/15 05:16:16;;;;;;;3.05;1.08;;;10.70;77.20;;;;;;5096642;28;20110;-66
2023/10/15 05:18:43;;;;;;;2.78;0.80;;;10.70;77.10;;;;;;5088658;28;20078;-67
2023/10/15 05:21:10;;;;;;;2.13;0.77;;;10.70;77.10;;;;;;5075169;28;20019;-67
2023/10/15 05:23:37;;;;;;;3.05;1.00;;;10.70;77.10;;;;;;5069651;28;20423;-67
2023/10/15 05:26:03;;;;;;;1.73;0.80;;;10.60;77.00;;;;;;5086168;28;20023;-67
2023/10/15 05:28:29;;;;;;;2.17;0.70;;;10.60;77.60;;;;;;5084235;28;20020;-67
2023/10/15 05:30:57;;;;;;;1.05;0.63;;;10.70;77.00;;;;;;5095684;28;20020;-67
2023/10/15 05:33:24;;;;;;;3.20;0.80;;;10.60;76.90;;;;;;5104330;28;20031;-67
2023/10/15 05:35:49;;;;;;;3.97;1.17;;;10.60;76.90;;;;;;5098557;28;20085;-67
2023/10/15 05:38:16;;;;;;;4.00;0.90;;;10.60;76.90;;;;;;5100027;28;20027;-67
2023/10/15 05:40:44;;;;;;;2.88;0.85;;;10.60;77.00;;;;;;5116693;28;20054;-67
2023/10/15 05:43:10;;;;;;;2.38;0.82;;;10.60;77.00;;;;;;5100026;28;20028;-68
2023/10/15 05:45:37;;;;;;;3.22;1.08;;;10.60;77.00;;;;;;5093417;28;20082;-67
2023/10/15 05:48:03;;;;;;;4.32;1.00;;;10.50;76.90;;;;;;5097328;28;20325;-67
2023/10/15 05:50:29;;;;;;;4.00;0.95;;;10.50;77.00;;;;;;5091929;28;20032;-68
2023/10/15 05:52:55;;;;;;;2.75;1.00;;;10.50;77.00;;;;;;5115514;28;20510;-67
2023/10/15 05:55:21;;;;;;;3.10;1.15;;;10.50;77.00;;;;;;5098715;28;20115;-67
2023/10/15 05:57:47;;;;;;;2.50;0.90;;;10.40;76.90;;;;;;5113142;28;20067;-67
2023/10/15 06:00:26;;;;;;;2.53;0.75;;;10.50;77.00;;;;;;5110613;28;20056;-68
2023/10/15 06:02:53;;;;;;;3.72;1.00;;;10.50;77.00;;;;;;5111445;28;20079;-67
2023/10/15 06:05:19;;;;;;;1.27;0.70;;;10.40;77.00;;;;;;5095070;28;20024;-67
2023/10/15 06:07:46;;;;;;;3.03;1.00;;;10.40;77.00;;;;;;5111166;28;20140;-67
2023/10/15 06:10:12;;;;;;;3.40;0.90;;;10.40;77.00;;;;;;5099063;28;20452;-67
2023/10/15 06:12:42;;;;;;;3.30;0.95;;;10.50;77.10;;;;;;5116078;28;20024;-67
2023/10/15 06:15:09;;;;;;;2.63;1.17;;;10.40;77.00;;;;;;5076823;28;20026;-68
2023/10/15 06:17:35;;;;;;;3.28;0.90;;;10.50;77.10;;;;;;5090643;28;20039;-67
2023/10/15 06:20:24;;;;;;;3.13;0.90;;;10.40;77.10;;;;;;5082546;28;20047;-68
2023/10/15 06:22:50;;;;;;;2.38;0.80;;;10.40;77.10;;;;;;5085152;28;20109;-68
2023/10/15 06:25:17;;;;;;;3.28;1.00;;;10.40;77.10;;;;;;5080851;28;20028;-68
2023/10/15 06:27:43;;;;;;;3.13;1.45;;;10.50;77.20;;;;;;5087930;28;20427;-67
2023/10/15 06:30:16;;;;;;;2.17;0.95;;;10.50;77.20;;;;;;5087864;28;20028;-68
2023/10/15 06:32:43;;;;;;;5.18;1.38;;;10.50;77.10;;;;;;5090533;28;20028;-68
2023/10/15 06:35:10;;;;;;;1.48;0.75;;;10.50;77.10;;;;;;5093062;28;20020;-67
2023/10/15 06:37:38;;;;;;;1.13;0.80;;;10.60;77.00;;;;;;5092796;28;20028;-67
2023/10/15 06:40:08;;;;;;;2.78;0.88;;;10.60;76.90;;;;;;5082173;28;20077;-67
2023/10/15 06:42:35;;;;;;;1.80;0.80;;;10.60;76.80;;;;;;5084451;28;20484;-68
2023/10/15 06:45:06;;;;;;;2.55;1.10;;;10.60;76.80;;;;;;5065654;28;20500;-67
2023/10/15 06:47:33;;;;;;;3.67;1.00;;;10.60;76.80;;;;;;5089437;28;20094;-68
2023/10/15 06:49:59;;;;;;;4.78;1.35;;;10.70;76.90;;;;;;5083435;28;20030;-68
2023/10/15 06:52:25;;;;;;;6.03;1.40;;;10.70;77.10;;;;;;5090280;28;20032;-67
2023/10/15 06:54:50;;;;;;;4.05;1.23;;;10.70;76.80;;;;;;5074615;28;20063;-68
2023/10/15 06:57:16;;;;;;;3.70;1.23;;;10.70;76.80;;;;;;5078244;28;20036;-68
2023/10/15 06:59:43;;;;;;;6.53;1.27;;;10.70;76.80;;;;;;5099074;28;20028;-67
2023/10/15 07:02:09;;;;;;;2.55;1.10;;;10.70;76.90;;;;;;5096420;28;20023;-67
2023/10/15 07:04:35;;;;;;;5.05;1.65;;;10.70;76.90;;;;;;5092810;28;20035;-67
2023/10/15 07:07:01;;;;;;;5.03;1.70;;;10.70;77.10;;;;;;5092908;28;20361;-67
2023/10/15 07:09:27;;;;;;;5.13;1.50;;;10.70;77.20;;;;;;5075039;28;20024;-67
2023/10/15 07:11:53;;;;;;;4.57;1.55;;;10.70;77.20;;;;;;5090792;28;20035;-67
2023/10/15 07:14:19;;;;;;;3.45;1.08;;;10.70;77.20;;;;;;5098740;28;20028;-67
2023/10/15 07:16:45;;;;;;;4.57;1.30;;;10.80;77.40;;;;;;5082264;28;20452;-67
2023/10/15 07:19:11;;;;;;;5.03;1.42;;;10.80;77.40;;;;;;5087636;28;20045;-68
2023/10/15 07:21:37;;;;;;;5.00;1.23;;;10.80;77.50;;;;;;5075355;28;20028;-68
2023/10/15 07:24:05;;;;;;;4.40;1.13;;;10.80;77.60;;;;;;5081241;28;20029;-67
2023/10/15 07:26:31;;;;;;;7.28;1.75;;;10.90;77.60;;;;;;5074552;28;20031;-66
2023/10/15 07:28:56;;;;;;;2.53;1.05;;;10.90;77.60;;;;;;5082455;28;20024;-66
2023/10/15 07:31:22;;;;;;;2.50;1.10;;;11.00;77.60;;;;;;5092850;28;20020;-66
2023/10/15 07:33:48;;;;;;;2.63;0.93;;;11.10;78.10;;;;;;5080511;28;20126;-67
2023/10/15 07:36:13;;;;;;;7.10;1.40;;;11.10;77.40;;;;;;5080797;28;20036;-70
2023/10/15 07:38:39;;;;;;;3.42;1.30;;;11.10;77.50;;;;;;5085600;28;20036;-67
2023/10/15 07:41:06;;;;;;;3.50;1.17;;;11.10;77.40;;;;;;5077727;28;20357;-68
2023/10/15 07:43:34;;;;;;;6.35;1.73;;;11.10;77.40;;;;;;5078910;28;20309;-69
2023/10/15 07:46:00;;;;;;;5.03;1.52;;;11.10;77.50;;;;;;5079044;28;20040;-69
2023/10/15 07:48:27;;;;;;;3.90;1.10;;;11.10;77.50;;;;;;5088940;28;20033;-69
2023/10/15 07:50:53;;;;;;;2.10;1.17;;;11.10;77.60;;;;;;5076227;28;20093;-68
2023/10/15 07:53:18;;;;;;;4.25;1.15;;;11.00;77.60;;;;;;5072958;28;20040;-68
2023/10/15 07:55:46;;;;;;;3.03;1.10;;;11.00;77.70;;;;;;5078206;28;20540;-68
2023/10/15 07:58:12;;;;;;;5.10;1.10;;;11.00;77.70;;;;;;5089204;28;20035;-69
2023/10/15 08:00:38;;;;;;;5.22;1.23;;;11.00;77.80;;;;;;5081102;28;20016;-68
2023/10/15 08:03:07;;;;;;;4.00;1.00;;;10.90;77.80;;;;;;5085967;28;20368;-75
2023/10/15 08:05:34;;;;;;;2.60;1.10;;;10.90;77.90;;;;;;5083605;28;20025;-68
2023/10/15 08:08:00;;;;;;;3.78;1.00;;;11.00;77.90;;;;;;5085563;28;20063;-66
2023/10/15 08:10:32;;;;;;;2.90;1.20;;;11.00;77.90;;;;;;5086230;28;20165;-66
2023/10/15 08:12:58;;;;;;;;;;;11.10;77.90;;;;;;5086543;28;20036;-67
2023/10/15 08:15:24;;;;;;;8.23;1.48;;;11.10;77.70;;;;;;5087858;28;19938;-66
2023/10/15 08:17:50;;;;;;;3.00;1.27;;;11.20;77.50;;;;;;5086683;28;20029;-67
2023/10/15 08:20:15;;;;;;;4.63;1.38;;;11.30;77.50;;;;;;5101203;28;20102;-66
2023/10/15 08:22:44;;;;;;;3.97;1.13;;;11.40;77.50;;;;;;5086468;28;20402;-67
2023/10/15 08:25:13;;;;;;;3.90;1.40;;;11.40;77.40;;;;;;5084000;28;20028;-67
2023/10/15 08:27:44;;;;;;;4.65;1.58;;;11.50;77.50;;;;;;5069208;28;20023;-67
2023/10/15 08:30:14;;;;;;;2.95;1.25;;;11.50;77.40;;;;;;5086053;28;20099;-69
2023/10/15 08:32:44;;;;;;;3.58;1.20;;;11.50;77.30;;;;;;5085702;28;20055;-67
2023/10/15 08:35:13;;;;;;;3.88;1.20;;;11.50;77.30;;;;;;5085297;28;20510;-70
2023/10/15 08:37:40;;;;;;;5.15;1.40;;;11.50;77.30;;;;;;5088229;28;20456;-67
2023/10/15 08:40:08;;;;;;;3.90;1.10;;;11.50;77.30;;;;;;5091075;28;20024;-68
2023/10/15 08:42:38;;;;;;;2.58;1.00;;;11.50;77.30;;;;;;5087744;28;20028;-68
2023/10/15 08:45:07;;;;;;;3.08;1.10;;;11.60;77.00;;;;;;5091025;28;20039;-67
2023/10/15 08:47:34;;;;;;;4.30;1.35;;;11.60;76.80;;;;;;5088974;28;20035;-70
2023/10/15 08:50:00;;;;;;;2.88;1.10;;;11.80;76.50;;;;;;5091326;28;20028;-68
2023/10/15 08:52:31;;;;;;;3.20;0.90;;;11.80;76.20;;;;;;5073748;28;20068;-67
2023/10/15 08:55:01;;;;;;;3.28;0.80;;;11.80;76.00;;;;;;5090195;28;20103;-68
2023/10/15 08:57:29;;;;;;;2.22;0.95;;;11.80;75.90;;;;;;5088666;28;20028;-69
2023/10/15 08:59:57;;;;;;;1.83;0.70;;;11.90;75.80;;;;;;5108673;27;20024;-69
2023/10/15 09:02:24;;;;;;;3.05;0.80;;;11.80;75.70;;;;;;5090263;28;20101;-69
2023/10/15 09:04:52;;;;;;;4.18;1.33;;;11.80;75.70;;;;;;5090133;28;20103;-69
2023/10/15 09:07:19;;;;;;;3.30;1.33;;;11.80;75.70;;;;;;5078225;28;20039;-69
2023/10/15 09:09:45;;;;;;;3.10;1.20;;;11.80;75.70;;;;;;5076716;28;20020;-70
2023/10/15 09:12:12;;;;;;;5.10;1.33;;;11.80;75.80;;;;;;5083599;28;20066;-70
2023/10/15 09:14:44;;;;;;;4.70;1.08;;;11.90;75.80;;;;;;5078222;28;20027;-69
2023/10/15 09:17:11;;;;;;;2.80;0.98;;;12.10;75.40;;;;;;5091597;28;20021;-69
2023/10/15 09:19:39;;;;;;;2.60;0.88;;;12.40;74.90;;;;;;5079475;28;20059;-69
2023/10/15 09:22:06;;;;;;;4.35;1.10;;;12.60;74.50;;;;;;5077443;28;20020;-69
2023/10/15 09:24:33;;;;;;;2.17;0.90;;;12.80;74.00;;;;;;5078978;28;20016;-70
2023/10/15 09:26:58;;;;;;;3.78;1.00;;;13.00;73.40;;;;;;5077447;28;20021;-69
2023/10/15 09:29:24;;;;;;;2.58;1.20;;;13.30;72.90;;;;;;5082376;28;20033;-69
2023/10/15 09:31:56;;;;;;;2.38;0.80;;;13.60;72.30;;;;;;5078826;28;20027;-70
2023/10/15 09:34:26;;;;;;;2.20;0.95;;;13.70;72.00;;;;;;5084051;28;20032;-69
2023/10/15 09:36:52;;;;;;;3.70;1.08;;;13.50;71.80;;;;;;5093226;28;20050;-70
2023/10/15 09:39:17;;;;;;;3.42;0.98;;;13.30;72.10;;;;;;5087333;28;20375;-68
2023/10/15 09:41:44;;;;;;;1.70;0.70;;;13.10;72.50;;;;;;5087377;28;20360;-68
2023/10/15 09:44:14;;;;;;;3.90;1.10;;;12.90;72.90;;;;;;5089327;28;20057;-68
2023/10/15 09:46:43;;;;;;;2.60;0.88;;;12.80;73.30;;;;;;5089072;28;20079;-69
2023/10/15 09:49:13;;;;;;;3.65;1.05;;;12.80;73.60;;;;;;5087148;28;20024;-68
2023/10/15 09:51:43;;;;;;;3.15;1.00;;;12.90;73.20;;;;;;5086382;28;20027;-69
2023/10/15 09:54:14;;;;;;;2.03;0.88;;;13.00;73.00;;;;;;5088412;28;20467;-68
2023/10/15 09:56:41;;;;;;;4.20;1.13;;;13.00;72.90;;;;;;5088693;28;20025;-69
2023/10/15 09:59:08;;;;;;;4.88;0.95;;;13.20;72.90;;;;;;5087816;28;20304;-69
2023/10/15 10:01:38;;;;;;;4.72;1.02;;;13.20;72.40;;;;;;5086493;28;20035;-69
2023/10/15 10:04:40;;;;;;;4.25;1.08;;;13.30;72.30;;;;;;5097938;28;20043;-69
2023/10/15 10:07:47;;;;;;;;;;;13.20;72.30;;;;;;5089006;28;20039;-70
2023/10/15 10:10:44;;;;;;;4.15;0.95;;;13.10;72.50;;;;;;4990549;28;19913;-70
2023/10/15 10:13:25;;;;;;;2.72;0.95;;;13.00;72.70;;;;;;5098263;28;20027;-70
2023/10/15 10:15:57;;;;;;;2.75;1.08;;;13.00;72.80;;;;;;5108063;28;20531;-70
2023/10/15 10:18:25;;;;;;;5.05;1.25;;;13.00;72.90;;;;;;5087588;28;20138;-70
2023/10/15 10:20:51;;;;;;;4.75;1.23;;;13.10;72.90;;;;;;5087655;28;20036;-70
2023/10/15 10:23:17;;;;;;;3.83;0.85;;;13.30;73.40;;;;;;5088174;28;20087;-70
2023/10/15 10:25:47;;;;;;;4.07;1.27;;;13.40;72.40;;;;;;5088781;28;20031;-70
2023/10/15 10:28:21;;;;;;;4.45;1.10;;;13.50;72.00;;;;;;5086461;28;20398;-70
2023/10/15 10:30:54;;;;;;;4.10;1.35;;;13.50;71.60;;;;;;5075767;28;20518;-70
2023/10/15 10:33:42;;;;;;;1.85;0.90;;;13.50;71.50;;;;;;5085574;28;20815;-71
2023/10/15 10:36:29;;;;;;;5.10;0.90;;;13.80;71.20;;;;;;5071591;28;20028;-72
2023/10/15 10:39:13;;;;;;;3.55;0.93;;;14.10;70.40;;;;;;5078347;28;20043;-67
2023/10/15 10:41:44;;;;;;;2.72;0.98;;;14.30;70.10;;;;;;5077658;28;20063;-69
2023/10/15 10:44:22;;;;;;;4.38;1.05;;;14.30;69.70;;;;;;5086562;28;20028;-68
2023/10/15 10:46:48;;;;;;;4.50;1.17;;;14.30;69.60;;;;;;5086729;28;20432;-69
2023/10/15 10:49:16;;;;;;;6.72;1.30;;;14.20;69.50;;;;;;5088200;28;20168;-69
2023/10/15 10:51:43;;;;;;;2.00;0.70;;;14.30;69.20;;;;;;5086533;28;20443;-69
2023/10/15 10:54:09;;;;;;;4.95;0.98;;;14.40;68.80;;;;;;5085194;28;20522;-70
2023/10/15 10:56:40;;;;;;;3.95;0.90;;;14.50;68.50;;;;;;5087493;28;20028;-70
2023/10/15 10:59:14;;;;;;;3.25;0.90;;;14.70;68.30;;;;;;5084744;28;20039;-69
2023/10/15 11:01:41;;;;;;;3.70;0.90;;;14.80;67.90;;;;;;5087000;28;20376;-69
2023/10/15 11:04:08;;;;;;;5.30;0.90;;;14.80;67.70;;;;;;5086600;28;20024;-69
2023/10/15 11:06:36;;;;;;;5.65;1.48;;;14.90;67.40;;;;;;5088155;28;20078;-69
2023/10/15 11:09:15;;;;;;;3.88;1.00;;;14.90;67.10;;;;;;5090898;28;20123;-70
2023/10/15 11:11:52;;;;;;;4.97;1.00;;;15.00;66.90;;;;;;5089109;28;20027;-69
2023/10/15 11:14:23;;;;;;;4.38;1.02;;;15.00;66.60;;;;;;5086914;28;20077;-68
2023/10/15 11:16:50;;;;;;;2.83;0.90;;;15.00;66.50;;;;;;5085250;28;20028;-69
2023/10/15 11:19:28;;;;;;;3.60;1.10;;;15.00;66.50;;;;;;5069731;28;20081;-68
2023/10/15 11:21:55;;;;;;;5.82;1.20;;;14.90;66.70;;;;;;5093570;28;20038;-68
2023/10/15 11:24:26;;;;;;;3.45;1.38;;;14.90;66.90;;;;;;5088243;28;20091;-68
2023/10/15 11:26:55;;;;;;;;;;;14.80;66.70;;;;;;5093179;28;20029;-68
2023/10/15 11:29:23;;;;;;;3.63;1.08;;;14.60;67.20;;;;;;5084131;28;19916;-68
2023/10/15 11:31:52;;;;;;;2.83;1.00;;;14.40;67.50;;;;;;5083160;28;20040;-68
2023/10/15 11:34:24;;;;;;;3.75;1.08;;;14.20;67.80;;;;;;5094377;28;20033;-68
2023/10/15 11:36:55;;;;;;;2.88;0.95;;;14.20;68.00;;;;;;5068757;28;20036;-68
2023/10/15 11:42:09;;;;;;;3.22;1.40;;;14.50;67.50;;;;;;5085435;28;20353;-67
2023/10/15 11:44:43;;;;;;;4.38;1.40;;;14.50;67.30;;;;;;5088933;28;20036;-68
2023/10/15 11:47:16;;;;;;;4.18;1.13;;;14.40;66.90;;;;;;5086680;28;20427;-68
2023/10/15 11:49:44;;;;;;;5.47;1.40;;;14.30;67.10;;;;;;5087882;28;20024;-68
2023/10/15 11:52:16;;;;;;;4.28;1.25;;;14.10;67.00;;;;;;5086117;28;20105;-66
2023/10/15 11:54:48;;;;;;;6.05;1.20;;;14.10;67.10;;;;;;5087549;28;20360;-67
2023/10/15 11:57:20;;;;;;;3.20;1.15;;;14.10;66.90;;;;;;5089416;28;20113;-67
2023/10/15 11:59:48;;;;;;;5.47;1.20;;;14.10;66.60;;;;;;5088233;28;20112;-67
2023/10/15 12:02:14;;;;;;;5.68;1.15;;;14.10;66.40;;;;;;5075918;28;20020;-68
2023/10/15 12:04:40;;;;;;;6.72;1.30;;;14.10;66.10;;;;;;5089203;28;21146;-68
2023/10/15 12:07:11;;;;;;;5.53;1.40;;;14.10;65.80;;;;;;5087949;28;20456;-67
2023/10/15 12:09:39;;;;;;;4.40;1.17;;;14.00;65.20;;;;;;5087375;28;20016;-68
2023/10/15 12:12:07;;;;;;;5.00;1.33;;;14.00;66.00;;;;;;5088518;28;20593;-67
2023/10/15 12:14:33;;;;;;;4.47;1.10;;;14.00;65.40;;;;;;5086447;28;20051;-68
2023/10/15 12:16:59;;;;;;;2.90;1.00;;;14.00;65.30;;;;;;5089168;28;20356;-68
2023/10/15 12:19:24;;;;;;;6.53;1.10;;;14.00;65.20;;;;;;5089235;28;20066;-68
2023/10/15 12:21:50;;;;;;;5.85;1.00;;;14.00;65.00;;;;;;5088448;28;20360;-68
2023/10/15 12:24:17;;;;;;;3.95;1.20;;;14.00;65.00;;;;;;5073494;28;20031;-69
2023/10/15 12:26:46;;;;;;;4.68;1.38;;;14.00;65.00;;;;;;5091988;28;20030;-68
2023/10/15 12:29:13;;;;;;;5.03;1.48;;;14.10;65.10;;;;;;5089212;28;20118;-68
2023/10/15 12:31:43;;;;;;;4.85;1.20;;;14.20;65.00;;;;;;5088232;28;20031;-68
2023/10/15 12:34:11;;;;;;;2.90;0.93;;;14.20;64.80;;;;;;5088884;28;20024;-68
2023/10/15 12:36:38;;;;;;;4.70;0.85;;;14.30;64.60;;;;;;5089776;28;20426;-68
2023/10/15 12:39:05;;;;;;;4.88;1.25;;;14.30;64.40;;;;;;5094914;28;20549;-69
2023/10/15 12:41:34;;;;;;;4.75;1.52;;;14.30;64.30;;;;;;5089169;28;20063;-69
2023/10/15 12:44:00;;;;;;;2.88;1.05;;;14.30;64.20;;;;;;5088092;28;20407;-68
2023/10/15 12:46:27;;;;;;;6.05;1.25;;;14.40;64.20;;;;;;5096951;28;20448;-68
2023/10/15 12:48:52;;;;;;;5.60;1.23;;;14.40;64.10;;;;;;5089109;28;20016;-68
2023/10/15 12:51:19;;;;;;;5.28;1.50;;;14.40;64.00;;;;;;5086656;28;20334;-68
2023/10/15 12:53:46;;;;;;;4.55;0.98;;;14.40;63.90;;;;;;5088537;28;20387;-68
2023/10/15 12:56:12;;;;;;;3.25;0.98;;;14.40;63.80;;;;;;5095452;28;20028;-68
2023/10/15 12:58:38;;;;;;;4.05;0.82;;;14.50;63.80;;;;;;5086589;28;20028;-68
2023/10/15 13:01:05;;;;;;;4.63;0.88;;;14.50;63.90;;;;;;5082343;28;20107;-68
2023/10/15 13:03:32;;;;;;;5.68;1.30;;;14.50;64.00;;;;;;5089608;28;20036;-68
2023/10/15 13:05:58;;;;;;;3.28;1.02;;;14.50;64.00;;;;;;5088265;28;20034;-66
2023/10/15 13:08:24;;;;;;;3.90;0.98;;;14.50;64.10;;;;;;5070576;28;20122;-72
2023/10/15 13:10:51;;;;;;;6.70;1.35;;;14.40;64.20;;;;;;5083339;28;20036;-67
2023/10/15 13:13:17;;;;;;;3.33;1.00;;;14.40;64.30;;;;;;5071191;28;20028;-67
2023/10/15 13:15:43;;;;;;;5.38;1.20;;;14.40;64.10;;;;;;5098908;28;20053;-67
2023/10/15 13:18:08;;;;;;;2.58;0.85;;;14.30;63.90;;;;;;5080574;28;20052;-68
2023/10/15 13:20:34;;;;;;;4.25;0.90;;;14.30;63.60;;;;;;5087513;28;20406;-68